Time;durP1;ratioP1;P1;durP2;ratioP2;P2;SDS_P1;SDS_P2;PMS_P1;PMS_P2;Temp;Humidity;BMP_temperature;BMP_pressure;BME280_temperature;BME280_humidity;BME280_pressure;Samples;Min_cycle;Max_cycle;Signal;HPM_P1;HPM_P2
2021/08/12 05:18:47;;;;;;;16.27;7.25;;;;;;;37.65;31.92;100182.19;1762661;81;21186;-68
2021/08/12 05:21:22;;;;;;;9.63;6.28;;;;;;;38.13;31.17;100183.53;1747682;82;21286;-67
2021/08/12 05:23:57;;;;;;;13.08;6.55;;;;;;;38.50;30.47;100181.58;1764128;81;21198;-66
2021/08/12 05:26:37;;;;;;;10.82;6.25;;;;;;;38.84;29.77;100181.55;1748339;82;21846;-66
2021/08/12 05:33:32;;;;;;;12.05;6.08;;;;;;;39.55;28.48;100188.67;1734935;82;21353;-67
2021/08/12 05:36:34;;;;;;;15.05;6.28;;;;;;;40.00;27.76;100191.66;1744540;82;21494;-68
2021/08/12 05:43:56;;;;;;;11.10;5.92;;;;;;;40.68;26.64;100193.09;1670398;83;21941;-69
2021/08/12 05:46:44;;;;;;;13.13;6.40;;;;;;;41.32;25.77;100192.06;1715601;83;21231;-66
2021/08/12 05:49:24;;;;;;;11.05;5.70;;;;;;;41.71;25.18;100201.02;1715369;83;21510;-67
2021/08/12 05:54:53;;;;;;;12.23;5.45;;;;;;;42.16;24.26;100201.67;1716840;83;21234;-66
2021/08/12 05:57:29;;;;;;;12.98;6.15;;;;;;;42.36;24.20;100201.27;1714487;83;21466;-65
2021/08/12 06:00:04;;;;;;;14.20;5.60;;;;;;;42.67;23.87;100197.85;1715063;83;22099;-68
2021/08/12 06:02:39;;;;;;;12.65;5.50;;;;;;;42.96;23.42;100203.02;1714467;83;21314;-70
2021/08/12 06:05:14;;;;;;;10.48;5.62;;;;;;;43.18;22.98;100198.86;1715299;83;21218;-65
2021/08/12 06:07:49;;;;;;;9.20;6.25;;;;;;;43.36;22.79;100195.42;1714009;83;21188;-68
2021/08/12 06:10:22;;;;;;;10.35;5.47;;;;;;;43.53;22.47;100190.92;1711248;83;21436;-69
2021/08/12 06:12:56;;;;;;;9.53;5.35;;;;;;;43.68;22.32;100193.47;1702430;84;21330;-69
2021/08/12 06:15:32;;;;;;;11.12;5.53;;;;;;;43.86;22.08;100194.66;1703525;84;21201;-69
2021/08/12 06:18:13;;;;;;;14.90;5.17;;;;;;;44.07;21.71;100204.81;1705606;84;21177;-68
2021/08/12 06:20:47;;;;;;;11.90;5.42;;;;;;;44.03;21.76;100208.06;1703203;84;22039;-66
2021/08/12 06:23:23;;;;;;;14.33;5.40;;;;;;;44.21;21.47;100209.06;1700658;84;21197;-67
2021/08/12 06:25:58;;;;;;;13.58;7.60;;;;;;;44.40;21.18;100210.45;1701400;84;21906;-68
2021/08/12 06:28:31;;;;;;;16.12;6.55;;;;;;;44.59;21.37;100204.95;1701677;83;21367;-67
2021/08/12 06:31:05;;;;;;;14.23;6.10;;;;;;;44.81;20.73;100203.60;1701556;84;21221;-67
2021/08/12 06:33:39;;;;;;;29.52;6.62;;;;;;;45.08;20.55;100198.19;1702617;84;21291;-68
2021/08/12 06:36:35;;;;;;;19.32;6.30;;;;;;;45.40;20.32;100195.42;1701468;84;21479;-67
2021/08/12 06:39:09;;;;;;;10.72;5.28;;;;;;;45.76;19.88;100200.95;1711610;83;21330;-67
2021/08/12 06:41:43;;;;;;;12.13;6.03;;;;;;;45.98;19.70;100208.39;1669371;86;21339;-67
2021/08/12 06:44:20;;;;;;;13.98;7.53;;;;;;;46.18;19.48;100208.47;1696561;84;21208;-68
2021/08/12 06:46:53;;;;;;;10.90;7.70;;;;;;;46.39;19.36;100210.16;1711540;83;21382;-68
2021/08/12 06:49:31;;;;;;;18.95;8.45;;;;;;;46.55;19.05;100211.34;1711147;83;21370;-68
2021/08/12 06:52:10;;;;;;;13.28;5.83;;;;;;;46.63;19.03;100213.80;1683988;83;21346;-68
2021/08/12 06:54:45;;;;;;;16.12;5.25;;;;;;;46.71;18.84;100211.36;1711524;83;21378;-67
2021/08/12 06:57:19;;;;;;;13.70;5.35;;;;;;;46.83;18.50;100213.06;1710859;83;21331;-70
2021/08/12 06:59:53;;;;;;;11.95;5.15;;;;;;;46.99;18.32;100212.81;1711161;83;21582;-71
2021/08/12 07:02:26;;;;;;;13.88;5.20;;;;;;;47.11;18.02;100210.59;1710026;83;21642;-69
2021/08/12 07:04:59;;;;;;;11.12;4.85;;;;;;;47.26;18.06;100204.59;1713683;83;21363;-68
2021/08/12 07:07:33;;;;;;;13.93;5.67;;;;;;;47.46;17.54;100207.33;1713366;83;21239;-68
2021/08/12 07:10:08;;;;;;;14.38;5.70;;;;;;;47.68;17.45;100206.31;1711736;83;21362;-70
2021/08/12 07:12:41;;;;;;;10.30;4.80;;;;;;;47.81;17.19;100201.28;1710138;83;21331;-70
2021/08/12 07:15:16;;;;;;;12.25;5.53;;;;;;;48.03;17.15;100199.41;1683493;83;21408;-69
2021/08/12 07:17:50;;;;;;;15.58;9.38;;;;;;;48.30;16.69;100202.13;1710871;83;21660;-72
2021/08/12 07:20:25;;;;;;;13.10;5.17;;;;;;;48.62;16.32;100198.91;1713407;83;22088;-68
2021/08/12 07:23:01;;;;;;;14.18;5.25;;;;;;;48.84;16.08;100199.77;1709389;83;21317;-69
2021/08/12 07:25:36;;;;;;;12.13;4.97;;;;;;;49.03;15.84;100202.98;1711147;83;21326;-71
2021/08/12 07:28:12;;;;;;;11.78;4.83;;;;;;;49.33;15.59;100204.58;1712816;83;21369;-71
2021/08/12 07:34:55;;;;;;;16.07;4.85;;;;;;;49.70;15.30;100202.20;1684470;85;21192;-68
2021/08/12 07:37:28;;;;;;;14.25;5.70;;;;;;;49.76;15.00;100201.38;1682712;85;21522;-72
2021/08/12 07:40:04;;;;;;;9.80;4.95;;;;;;;49.96;14.52;100198.98;1682772;85;21204;-73
2021/08/12 07:42:38;;;;;;;13.25;5.20;;;;;;;50.07;14.57;100193.35;1681908;85;21216;-69
2021/08/12 07:45:12;;;;;;;16.52;5.62;;;;;;;50.02;14.15;100190.39;1682717;85;21473;-71
2021/08/12 07:47:46;;;;;;;14.30;5.30;;;;;;;50.03;13.85;100193.97;1683065;85;21208;-72
2021/08/12 07:50:19;;;;;;;12.93;4.92;;;;;;;50.08;13.78;100204.70;1685204;85;21335;-69
2021/08/12 07:57:03;;;;;;;8.80;5.03;;;;;;;49.77;14.08;100211.33;1684551;85;21267;-70
2021/08/12 07:59:36;;;;;;;32.93;5.65;;;;;;;48.64;14.79;100215.38;1681737;85;21339;-70
2021/08/12 08:02:10;;;;;;;11.97;5.03;;;;;;;47.73;15.80;100211.50;1682391;85;21436;-69
2021/08/12 08:04:45;;;;;;;10.28;4.92;;;;;;;46.77;16.48;100211.02;1681744;85;21354;-68
2021/08/12 08:07:20;;;;;;;12.40;4.72;;;;;;;46.13;17.01;100212.15;1681615;85;21225;-67
2021/08/12 08:09:53;;;;;;;12.05;5.45;;;;;;;45.62;17.32;100212.57;1682822;85;21330;-65
2021/08/12 08:12:27;;;;;;;11.25;4.80;;;;;;;45.15;17.88;100210.75;1684019;85;22157;-70
2021/08/12 08:15:00;;;;;;;17.30;5.05;;;;;;;44.72;18.10;100213.28;1683641;85;22151;-72
2021/08/12 08:17:34;;;;;;;11.88;4.58;;;;;;;44.48;18.33;100212.20;1687268;85;22209;-71
2021/08/12 08:20:09;;;;;;;12.68;4.80;;;;;;;44.64;18.36;100209.58;1681513;85;21942;-69
2021/08/12 08:22:42;;;;;;;11.48;4.53;;;;;;;45.02;18.16;100210.15;1682246;85;21267;-68
2021/08/12 08:25:15;;;;;;;11.90;5.03;;;;;;;45.53;17.86;100198.77;1681485;85;21656;-68
2021/08/12 08:27:48;;;;;;;14.70;4.90;;;;;;;45.93;17.51;100204.55;1682739;85;21613;-71
2021/08/12 08:30:24;;;;;;;15.58;4.92;;;;;;;46.24;17.33;100207.56;1678276;85;22153;-71
2021/08/12 08:32:58;;;;;;;17.98;5.47;;;;;;;46.27;17.11;100206.80;1682217;85;21343;-68
2021/08/12 08:35:31;;;;;;;15.25;4.83;;;;;;;46.03;17.47;100211.64;1681435;85;21244;-70
2021/08/12 08:38:07;;;;;;;9.23;4.45;;;;;;;45.74;17.54;100208.83;1683292;85;21296;-69
2021/08/12 08:40:40;;;;;;;13.45;4.42;;;;;;;45.48;17.84;100210.16;1670799;85;21324;-69
2021/08/12 08:43:14;;;;;;;13.15;4.28;;;;;;;45.27;17.62;100215.55;1631861;88;22000;-69
2021/08/12 08:45:47;;;;;;;19.57;5.55;;;;;;;45.27;17.59;100207.83;1661031;86;21212;-70
2021/08/12 08:48:21;;;;;;;13.98;5.28;;;;;;;45.19;18.03;100208.26;1657957;86;21332;-69
2021/08/12 08:50:55;;;;;;;11.28;4.45;;;;;;;45.22;17.87;100207.55;1632212;86;21212;-70
2021/08/12 08:53:30;;;;;;;16.17;4.60;;;;;;;45.37;17.82;100199.73;1631736;88;21271;-70
2021/08/12 08:56:04;;;;;;;16.70;6.17;;;;;;;45.60;17.68;100204.47;1660783;86;21338;-68
2021/08/12 08:58:39;;;;;;;10.60;4.35;;;;;;;45.73;17.66;100205.83;1657766;86;21614;-68
2021/08/12 09:01:12;;;;;;;9.80;4.53;;;;;;;45.87;17.66;100210.19;1657979;86;21582;-68
2021/08/12 09:03:46;;;;;;;11.80;4.53;;;;;;;45.93;17.61;100215.62;1610330;88;21335;-68
2021/08/12 09:06:19;;;;;;;17.20;4.50;;;;;;;45.99;17.60;100220.48;1662654;86;21343;-68
2021/08/12 09:08:54;;;;;;;11.25;4.33;;;;;;;46.02;17.43;100220.33;1631448;86;21206;-68
2021/08/12 09:11:28;;;;;;;13.30;4.42;;;;;;;46.04;17.41;100218.78;1657830;85;21188;-67
2021/08/12 09:14:01;;;;;;;12.03;4.85;;;;;;;46.05;17.19;100214.05;1631404;88;21235;-67
2021/08/12 09:16:38;;;;;;;10.95;4.45;;;;;;;45.77;17.63;100203.91;1614271;86;21996;-67
2021/08/12 09:19:24;;;;;;;10.32;4.20;;;;;;;45.52;17.83;100199.95;1656511;86;21221;-68
2021/08/12 09:22:01;;;;;;;10.98;4.50;;;;;;;45.36;17.93;100203.64;1657724;86;21199;-70
2021/08/12 09:24:50;;;;;;;12.00;4.80;;;;;;;45.19;18.20;100204.72;1631451;88;21195;-68
2021/08/12 09:27:24;;;;;;;14.47;4.65;;;;;;;44.81;18.42;100202.80;1680695;85;21299;-71
2021/08/12 09:33:55;;;;;;;9.60;4.17;;;;;;;43.71;19.05;100200.23;1659747;86;22003;-68
2021/08/12 09:48:21;;;;;;;15.28;4.75;;;;;;;40.94;21.68;100208.77;1661371;84;21963;-66
2021/08/12 09:51:12;;;;;;;13.15;4.05;;;;;;;40.62;21.83;100203.50;1636238;86;21273;-66
2021/08/12 09:53:45;;;;;;;11.65;4.03;;;;;;;40.47;21.95;100208.78;1652678;86;21347;-67
2021/08/12 10:00:40;;;;;;;9.48;4.05;;;;;;;40.18;21.74;100208.25;1623876;86;21494;-68
2021/08/12 10:07:49;;;;;;;9.28;4.20;;;;;;;39.85;22.22;100216.34;1623961;88;22093;-67
2021/08/12 10:10:29;;;;;;;15.10;3.75;;;;;;;39.80;21.82;100217.91;1624637;88;21263;-67
2021/08/12 10:13:03;;;;;;;13.50;4.10;;;;;;;39.69;21.84;100220.80;1646891;86;21191;-67
2021/08/12 10:15:36;;;;;;;8.83;3.50;;;;;;;39.57;21.77;100220.66;1626403;86;21241;-67
2021/08/12 10:18:11;;;;;;;12.75;3.70;;;;;;;39.47;21.76;100221.02;1652417;86;22018;-67
2021/08/12 10:20:45;;;;;;;16.27;3.80;;;;;;;39.29;22.25;100224.96;1623843;88;21625;-69
2021/08/12 10:23:19;;;;;;;8.28;3.58;;;;;;;39.13;22.75;100229.30;1602651;88;21221;-69
2021/08/12 10:25:58;;;;;;;10.13;3.72;;;;;;;38.93;23.00;100226.13;1623774;88;21352;-66
2021/08/12 10:28:29;;;;;;;10.08;4.15;;;;;;;38.72;22.89;100224.38;1651990;86;21410;-68
2021/08/12 10:31:03;;;;;;;10.75;3.50;;;;;;;38.55;23.21;100225.75;1623806;88;21371;-66
2021/08/12 10:33:36;;;;;;;11.73;3.90;;;;;;;38.37;23.05;100223.55;1623975;88;22006;-66
2021/08/12 10:36:11;;;;;;;12.98;3.90;;;;;;;38.17;23.77;100240.54;1623815;88;21917;-67
2021/08/12 10:38:44;;;;;;;10.65;4.30;;;;;;;37.96;24.05;100237.61;1654238;86;21486;-66
2021/08/12 10:45:29;;;;;;;8.48;3.72;;;;;;;37.69;23.92;100244.63;1623446;88;21182;-67
2021/08/12 10:48:06;;;;;;;7.60;3.00;;;;;;;37.51;23.97;100248.42;1622737;88;21217;-67
2021/08/12 10:50:41;;;;;;;7.55;3.25;;;;;;;37.44;23.82;100245.34;1651444;85;21244;-67
2021/08/12 10:53:15;;;;;;;6.42;3.62;;;;;;;37.26;23.73;100244.40;1623977;88;21258;-67
2021/08/12 10:55:59;;;;;;;7.45;3.50;;;;;;;37.12;23.92;100243.13;1622797;88;21528;-67
2021/08/12 10:58:36;;;;;;;9.00;3.30;;;;;;;37.05;24.64;100245.48;1651812;86;21269;-66
2021/08/12 11:01:12;;;;;;;9.28;3.27;;;;;;;37.04;24.51;100248.54;1692832;84;21251;-66
2021/08/12 11:03:47;;;;;;;9.20;3.98;;;;;;;37.03;24.52;100249.64;1684377;85;21295;-65
2021/08/12 11:06:24;;;;;;;8.35;3.55;;;;;;;36.99;24.58;100252.20;1676970;85;21326;-65
2021/08/12 11:09:04;;;;;;;13.22;4.12;;;;;;;36.92;24.78;100249.66;1665404;85;21957;-66
2021/08/12 11:11:37;;;;;;;7.97;4.33;;;;;;;36.84;25.29;100251.73;1676522;85;21212;-66
2021/08/12 11:14:13;;;;;;;12.18;3.87;;;;;;;36.79;25.31;100249.92;1676643;85;21224;-67
2021/08/12 11:16:53;;;;;;;8.88;3.62;;;;;;;36.71;24.95;100245.20;1676551;85;21596;-66
2021/08/12 11:19:33;;;;;;;7.92;3.20;;;;;;;36.58;25.17;100243.34;1676537;84;21252;-68
2021/08/12 11:22:29;;;;;;;6.83;3.50;;;;;;;36.43;26.03;100245.02;1677801;85;21455;-66
2021/08/12 11:25:04;;;;;;;6.65;3.02;;;;;;;36.28;26.32;100245.38;1678023;85;21371;-66
2021/08/12 11:31:56;;;;;;;10.18;3.80;;;;;;;36.11;26.77;100248.73;1678199;83;21187;-67
2021/08/12 11:34:57;;;;;;;10.30;4.40;;;;;;;36.02;27.20;100259.28;1678161;85;21473;-68
2021/08/12 11:37:30;;;;;;;10.95;3.65;;;;;;;35.91;26.85;100260.00;1677912;85;21401;-68
2021/08/12 11:40:06;;;;;;;9.90;3.90;;;;;;;35.77;27.03;100269.55;1678072;85;21600;-66
2021/08/12 11:42:43;;;;;;;8.15;3.80;;;;;;;35.62;27.29;100269.83;1677456;85;21914;-65
2021/08/12 11:45:26;;;;;;;9.60;3.80;;;;;;;35.48;27.75;100273.05;1678590;85;21411;-66
2021/08/12 11:47:58;;;;;;;9.45;4.22;;;;;;;35.37;27.68;100278.44;1677566;85;21207;-65
2021/08/12 11:50:33;;;;;;;12.23;4.58;;;;;;;35.26;28.36;100278.34;1680079;85;21200;-65
2021/08/12 11:53:09;;;;;;;11.85;4.40;;;;;;;35.14;28.34;100282.08;1678840;84;21330;-66
2021/08/12 11:55:43;;;;;;;12.18;4.50;;;;;;;35.03;28.75;100280.64;1676897;85;22019;-67
2021/08/12 11:58:17;;;;;;;;;;;;;;;34.91;29.23;100281.61;1679845;85;21606;-66
2021/08/12 12:00:52;;;;;;;10.32;4.60;;;;;;;34.79;29.09;100291.59;1666838;85;20319;-66
2021/08/12 12:03:34;;;;;;;16.07;4.47;;;;;;;34.62;29.53;100285.84;1666313;85;22201;-66
2021/08/12 12:06:09;;;;;;;;;;;;;;;34.48;30.09;100290.37;1679480;85;22120;-66
2021/08/12 12:08:43;;;;;;;13.55;4.03;;;;;;;34.34;30.31;100289.47;1677123;85;20272;-66
2021/08/12 12:11:18;;;;;;;11.55;4.20;;;;;;;34.20;30.36;100292.07;1676593;85;21200;-66
2021/08/12 12:13:51;;;;;;;12.55;3.95;;;;;;;34.08;30.42;100294.42;1677050;85;21589;-64
2021/08/12 12:16:26;;;;;;;10.08;3.80;;;;;;;33.96;30.85;100295.89;1681446;85;21239;-65
2021/08/12 12:18:58;;;;;;;;;;;;;;;33.80;31.06;100302.83;1679571;85;21354;-66
2021/08/12 12:21:32;;;;;;;12.65;5.25;;;;;;;33.65;31.58;100302.98;1678302;85;20794;-66
2021/08/12 12:24:06;;;;;;;;;;;;;;;33.47;31.56;100300.14;1679414;85;21236;-65
2021/08/12 12:26:38;;;;;;;9.85;4.05;;;;;;;33.33;31.79;100300.55;1677553;85;20836;-65
2021/08/12 12:29:13;;;;;;;10.10;4.10;;;;;;;33.15;31.71;100301.50;1677048;85;21327;-66
2021/08/12 12:31:50;;;;;;;12.95;3.85;;;;;;;33.03;31.65;100307.04;1678251;85;21240;-68
2021/08/12 12:38:33;;;;;;;8.80;3.65;;;;;;;32.77;31.52;100313.12;1679914;83;22016;-65
2021/08/12 12:41:09;;;;;;;;;;;;;;;32.56;31.54;100309.73;1682720;85;21323;-66
2021/08/12 12:43:41;;;;;;;9.05;3.60;;;;;;;32.48;31.85;100312.19;1677442;85;20360;-67
2021/08/12 12:46:16;;;;;;;17.12;4.20;;;;;;;32.38;32.16;100310.34;1677787;85;21322;-67
2021/08/12 12:48:49;;;;;;;9.03;3.85;;;;;;;32.29;32.91;100309.84;1673385;85;21362;-67
2021/08/12 12:51:27;;;;;;;13.85;4.00;;;;;;;32.18;33.16;100310.41;1676692;85;21200;-67
2021/08/12 12:54:02;;;;;;;17.20;4.17;;;;;;;32.07;33.63;100308.83;1676474;85;21506;-68
2021/08/12 12:56:37;;;;;;;14.03;3.62;;;;;;;31.98;33.99;100313.73;1677353;85;22155;-68
2021/08/12 12:59:14;;;;;;;17.07;3.77;;;;;;;31.88;34.19;100318.03;1677260;85;21271;-66
2021/08/12 13:01:55;;;;;;;8.58;4.00;;;;;;;31.79;34.43;100320.22;1680462;85;21314;-68
2021/08/12 13:04:29;;;;;;;8.30;3.60;;;;;;;31.66;34.66;100325.67;1668799;85;21200;-68
2021/08/12 13:07:02;;;;;;;10.15;3.92;;;;;;;31.57;34.97;100328.67;1677628;85;21318;-67
2021/08/12 13:09:41;;;;;;;10.08;4.10;;;;;;;31.48;35.26;100330.27;1677376;85;21304;-68
2021/08/12 13:12:32;;;;;;;14.38;4.08;;;;;;;31.38;35.34;100338.92;1676638;85;21212;-67
2021/08/12 13:15:16;;;;;;;11.85;3.95;;;;;;;31.28;36.35;100334.31;1676894;85;21343;-67
2021/08/12 13:18:02;;;;;;;8.95;3.35;;;;;;;31.18;36.49;100340.53;1676481;85;21276;-68
2021/08/12 13:20:48;;;;;;;11.93;4.10;;;;;;;31.10;36.27;100342.41;1676483;85;21193;-68
2021/08/12 13:27:35;;;;;;;9.45;4.53;;;;;;;31.00;36.14;100344.30;1682128;85;21292;-67
2021/08/12 13:30:10;;;;;;;11.20;6.05;;;;;;;30.92;35.77;100342.11;1667876;85;21200;-67
2021/08/12 13:32:43;;;;;;;10.85;5.08;;;;;;;30.87;35.63;100345.58;1678127;85;21453;-67
2021/08/12 13:35:16;;;;;;;;;;;;;;;30.81;35.80;100356.09;1679628;85;21481;-67
2021/08/12 13:37:49;;;;;;;9.85;4.72;;;;;;;30.75;35.93;100357.17;1677258;85;20303;-66
2021/08/12 13:40:22;;;;;;;;;;;;;;;30.68;35.87;100348.50;1679789;85;21271;-67
2021/08/12 13:42:55;;;;;;;12.45;5.37;;;;;;;30.63;35.84;100355.23;1678259;85;20390;-67
